createdAt,value
2017-12-17T00:00:46.132Z,4.84
2017-12-17T00:01:46.027Z,4.96
2017-12-17T00:02:46.075Z,5.20
2017-12-17T00:04:06.929Z,5.02
2017-12-17T00:04:45.922Z,4.97
2017-12-17T00:05:45.948Z,4.86
2017-12-17T00:06:46.090Z,4.78
2017-12-17T00:07:45.894Z,4.96
2017-12-17T00:08:45.774Z,4.99
2017-12-17T00:10:07.335Z,5.08
2017-12-17T00:10:46.324Z,5.00
2017-12-17T00:11:46.186Z,4.84
2017-12-17T00:12:46.077Z,4.92
2017-12-17T00:13:46.240Z,4.82
2017-12-17T00:14:46.175Z,4.74
2017-12-17T00:16:07.063Z,4.87
2017-12-17T00:16:46.289Z,4.80
2017-12-17T00:17:46.116Z,4.80
2017-12-17T00:18:46.281Z,4.87
2017-12-17T00:19:46.383Z,4.86
2017-12-17T00:20:46.437Z,4.86
2017-12-17T00:22:07.264Z,5.05
2017-12-17T00:22:46.225Z,4.90
2017-12-17T00:23:46.162Z,4.66
2017-12-17T00:24:46.311Z,4.82
2017-12-17T00:25:46.240Z,4.96
2017-12-17T00:26:45.994Z,5.02
2017-12-17T00:28:07.017Z,4.97
2017-12-17T00:28:45.995Z,5.07
2017-12-17T00:29:46.013Z,4.80
2017-12-17T00:30:46.033Z,4.89
2017-12-17T00:31:46.058Z,4.78
2017-12-17T00:32:46.065Z,4.93
2017-12-17T00:34:07.081Z,4.84
2017-12-17T00:34:46.081Z,4.96
2017-12-17T00:35:46.092Z,5.04
2017-12-17T00:36:46.104Z,4.96
2017-12-17T00:37:46.110Z,4.82
2017-12-17T00:38:46.127Z,5.00
2017-12-17T00:40:07.161Z,4.80
2017-12-17T00:40:46.229Z,4.89
2017-12-17T00:41:46.158Z,4.94
2017-12-17T00:42:46.157Z,4.84
2017-12-17T00:43:46.185Z,4.78
2017-12-17T00:44:46.212Z,4.74
2017-12-17T00:46:07.235Z,4.73
2017-12-17T00:46:46.220Z,4.75
2017-12-17T00:47:46.272Z,4.97
2017-12-17T00:48:46.272Z,4.86
2017-12-17T00:49:46.265Z,4.86
2017-12-17T00:50:46.269Z,4.73
2017-12-17T00:52:07.319Z,4.89
2017-12-17T00:52:46.322Z,4.70
2017-12-17T00:53:46.331Z,4.75
2017-12-17T00:54:46.338Z,4.80
2017-12-17T00:55:46.370Z,4.80
2017-12-17T00:56:46.385Z,4.74
2017-12-17T00:58:07.393Z,4.80
2017-12-17T00:58:46.402Z,4.87
2017-12-17T00:59:46.364Z,4.75
2017-12-17T01:00:46.420Z,4.80
2017-12-17T01:01:46.461Z,4.87
2017-12-17T01:02:46.448Z,5.11
2017-12-17T01:04:07.490Z,4.89
2017-12-17T01:04:46.488Z,4.78
2017-12-17T01:05:46.502Z,4.55
2017-12-17T01:06:46.493Z,4.58
2017-12-17T01:07:46.510Z,4.59
2017-12-17T01:08:46.528Z,4.53
2017-12-17T01:10:07.520Z,4.42
2017-12-17T01:10:46.561Z,4.63
2017-12-17T01:11:46.581Z,4.87
2017-12-17T01:12:46.597Z,4.49
2017-12-17T01:13:46.583Z,4.56
2017-12-17T01:14:46.614Z,4.82
2017-12-17T01:16:07.632Z,4.56
2017-12-17T01:16:46.701Z,4.63
2017-12-17T01:17:46.661Z,4.75
2017-12-17T01:18:46.657Z,4.89
2017-12-17T01:19:46.661Z,5.11
2017-12-17T01:20:46.693Z,5.21
2017-12-17T01:22:07.707Z,5.00
2017-12-17T01:22:46.718Z,4.86
2017-12-17T01:23:46.730Z,4.89
2017-12-17T01:24:46.707Z,5.14
2017-12-17T01:25:46.764Z,4.80
2017-12-17T01:26:46.744Z,4.59
2017-12-17T01:28:07.760Z,4.71
2017-12-17T01:28:46.776Z,4.78
2017-12-17T01:29:46.880Z,4.60
2017-12-17T01:30:46.788Z,4.53
2017-12-17T01:31:46.814Z,4.67
2017-12-17T01:32:46.844Z,4.53
2017-12-17T01:34:07.876Z,4.58
2017-12-17T01:34:46.922Z,4.63
2017-12-17T01:35:46.882Z,4.53
2017-12-17T01:36:46.898Z,4.58
2017-12-17T01:37:46.918Z,4.50
2017-12-17T01:38:46.942Z,4.53
2017-12-17T01:40:07.944Z,4.50
2017-12-17T01:40:46.900Z,4.45
2017-12-17T01:41:46.982Z,4.38
2017-12-17T01:42:46.951Z,4.55
2017-12-17T01:43:46.981Z,4.63
2017-12-17T01:44:46.999Z,4.87
2017-12-17T01:46:08.022Z,4.87
2017-12-17T01:46:46.994Z,4.80
2017-12-17T01:47:47.045Z,4.74
2017-12-17T01:48:47.068Z,4.74
2017-12-17T01:49:47.072Z,4.74
2017-12-17T01:50:47.120Z,4.90
2017-12-17T01:52:08.140Z,5.04
2017-12-17T01:52:47.115Z,5.04
2017-12-17T01:53:47.191Z,5.15
2017-12-17T01:54:47.124Z,4.77
2017-12-17T01:55:47.156Z,4.74
2017-12-17T01:56:47.176Z,4.49
2017-12-17T01:58:08.152Z,4.50
2017-12-17T01:58:47.201Z,4.52
2017-12-17T01:59:47.174Z,4.63
2017-12-17T02:00:47.213Z,4.86
2017-12-17T02:01:47.242Z,4.80
2017-12-17T02:02:47.245Z,4.70
2017-12-17T02:04:08.295Z,4.71
2017-12-17T02:04:47.230Z,4.74
2017-12-17T02:05:47.277Z,4.89
2017-12-17T02:06:47.309Z,4.73
2017-12-17T02:07:47.301Z,4.77
2017-12-17T02:08:47.318Z,4.86
2017-12-17T02:10:08.328Z,4.89
2017-12-17T02:10:47.358Z,4.77
2017-12-17T02:11:47.348Z,4.86
2017-12-17T02:12:47.354Z,4.82
2017-12-17T02:13:47.362Z,4.89
2017-12-17T02:14:47.377Z,4.93
2017-12-17T02:16:08.482Z,4.86
2017-12-17T02:16:47.428Z,4.67
2017-12-17T02:17:47.459Z,4.87
2017-12-17T02:18:47.468Z,5.00
2017-12-17T02:19:47.457Z,4.99
2017-12-17T02:20:47.470Z,5.05
2017-12-17T02:22:08.492Z,4.92
2017-12-17T02:22:47.500Z,4.90
2017-12-17T02:23:47.527Z,4.90
2017-12-17T02:24:47.525Z,4.86
2017-12-17T02:25:47.524Z,4.93
2017-12-17T02:26:47.553Z,4.77
2017-12-17T02:28:08.543Z,4.74
2017-12-17T02:28:47.548Z,4.70
2017-12-17T02:29:47.587Z,4.74
2017-12-17T02:30:47.677Z,4.74
2017-12-17T02:31:47.633Z,4.75
2017-12-17T02:32:47.639Z,4.86
2017-12-17T02:34:08.712Z,4.84
2017-12-17T02:34:47.670Z,4.84
2017-12-17T02:35:47.669Z,4.82
2017-12-17T02:36:47.658Z,4.77
2017-12-17T02:37:47.701Z,4.75
2017-12-17T02:38:47.711Z,4.71
2017-12-17T02:40:08.816Z,4.75
2017-12-17T02:40:47.738Z,4.70
2017-12-17T02:41:47.746Z,4.82
2017-12-17T02:42:47.767Z,4.90
2017-12-17T02:43:47.791Z,4.73
2017-12-17T02:44:47.801Z,4.74
2017-12-17T02:46:08.820Z,4.84
2017-12-17T02:46:47.817Z,4.87
2017-12-17T02:47:47.829Z,4.82
2017-12-17T02:48:47.859Z,4.97
2017-12-17T02:49:47.813Z,4.87
2017-12-17T02:50:47.873Z,4.77
2017-12-17T02:52:08.897Z,4.96
2017-12-17T02:52:47.916Z,4.96
2017-12-17T02:53:47.924Z,4.92
2017-12-17T02:54:47.914Z,4.89
2017-12-17T02:55:48.014Z,4.75
2017-12-17T02:56:47.945Z,4.84
2017-12-17T02:58:08.987Z,4.92
2017-12-17T02:58:47.956Z,5.10
2017-12-17T02:59:47.956Z,5.15
2017-12-17T03:00:47.987Z,4.92
2017-12-17T03:01:48.019Z,4.94
2017-12-17T03:02:48.040Z,4.97
2017-12-17T03:04:09.038Z,4.75
2017-12-17T03:04:48.069Z,4.86
2017-12-17T03:05:48.067Z,4.86
2017-12-17T03:06:48.080Z,4.97
2017-12-17T03:07:48.093Z,4.71
2017-12-17T03:08:48.105Z,4.80
2017-12-17T03:10:09.136Z,4.93
2017-12-17T03:10:48.158Z,4.80
2017-12-17T03:11:48.140Z,4.75
2017-12-17T03:12:48.165Z,4.89
2017-12-17T03:13:48.194Z,4.93
2017-12-17T03:14:48.188Z,5.08
2017-12-17T03:16:09.219Z,5.11
2017-12-17T03:16:48.236Z,4.80
2017-12-17T03:17:48.253Z,4.66
2017-12-17T03:18:48.259Z,4.70
2017-12-17T03:19:48.258Z,4.68
2017-12-17T03:20:48.304Z,4.89
2017-12-17T03:22:09.293Z,4.63
2017-12-17T03:22:48.273Z,4.53
2017-12-17T03:23:48.328Z,4.52
2017-12-17T03:24:48.333Z,4.73
2017-12-17T03:25:48.328Z,4.80
2017-12-17T03:26:48.352Z,4.89
2017-12-17T03:28:09.393Z,5.07
2017-12-17T03:28:48.378Z,5.00
2017-12-17T03:29:48.389Z,4.90
2017-12-17T03:30:48.406Z,4.73
2017-12-17T03:31:48.397Z,4.80
2017-12-17T03:32:48.429Z,4.67
2017-12-17T03:34:09.453Z,4.82
2017-12-17T03:34:48.445Z,4.67
2017-12-17T03:35:48.475Z,4.71
2017-12-17T03:36:48.455Z,4.80
2017-12-17T03:37:48.482Z,4.70
2017-12-17T03:38:48.516Z,4.60
2017-12-17T03:40:09.556Z,4.84
2017-12-17T03:40:48.521Z,4.82
2017-12-17T03:41:48.560Z,4.82
2017-12-17T03:42:48.553Z,4.93
2017-12-17T03:43:48.572Z,4.96
2017-12-17T03:44:48.573Z,4.78
2017-12-17T03:46:09.617Z,4.92
2017-12-17T03:46:48.614Z,4.97
2017-12-17T03:47:48.619Z,5.07
2017-12-17T03:48:48.742Z,4.92
2017-12-17T03:49:48.650Z,4.84
2017-12-17T03:50:48.652Z,4.70
2017-12-17T03:52:09.693Z,4.82
2017-12-17T03:52:48.681Z,4.75
2017-12-17T03:53:48.692Z,4.73
2017-12-17T03:54:48.711Z,4.59
2017-12-17T03:55:48.752Z,4.82
2017-12-17T03:56:48.748Z,4.52
2017-12-17T03:58:09.768Z,4.55
2017-12-17T03:58:48.783Z,4.45
2017-12-17T03:59:48.783Z,4.40
2017-12-17T04:00:48.816Z,4.58
2017-12-17T04:01:48.809Z,4.40
2017-12-17T04:02:48.809Z,4.38
2017-12-17T04:04:09.844Z,4.67
2017-12-17T04:04:48.861Z,4.40
2017-12-17T04:05:48.867Z,4.59
2017-12-17T04:06:48.886Z,4.66
2017-12-17T04:07:48.904Z,4.44
2017-12-17T04:08:48.910Z,4.55
2017-12-17T04:10:09.934Z,4.62
2017-12-17T04:10:48.936Z,4.49
2017-12-17T04:11:48.940Z,4.63
2017-12-17T04:12:49.000Z,4.68
2017-12-17T04:13:48.956Z,4.73
2017-12-17T04:14:48.992Z,4.67
2017-12-17T04:16:10.013Z,4.74
2017-12-17T04:16:48.973Z,4.71
2017-12-17T04:17:49.022Z,4.75
2017-12-17T04:18:49.045Z,4.78
2017-12-17T04:19:49.037Z,4.90
2017-12-17T04:20:49.069Z,4.75
2017-12-17T04:22:10.087Z,4.70
2017-12-17T04:22:49.096Z,4.74
2017-12-17T04:23:49.105Z,4.41
2017-12-17T04:24:49.123Z,4.52
2017-12-17T04:25:49.145Z,4.55
2017-12-17T04:26:49.163Z,4.75
2017-12-17T04:28:10.301Z,4.53
2017-12-17T04:28:49.304Z,4.52
2017-12-17T04:29:49.253Z,4.56
2017-12-17T04:30:49.274Z,4.66
2017-12-17T04:31:49.244Z,4.67
2017-12-17T04:32:49.244Z,4.67
2017-12-17T04:34:10.319Z,4.66
2017-12-17T04:34:49.848Z,4.67
2017-12-17T04:35:49.322Z,4.62
2017-12-17T04:36:49.338Z,4.66
2017-12-17T04:37:49.294Z,4.71
2017-12-17T04:38:49.342Z,4.66
2017-12-17T04:40:10.385Z,4.52
2017-12-17T04:40:49.414Z,4.58
2017-12-17T04:41:49.299Z,4.55
2017-12-17T04:42:49.493Z,4.45
2017-12-17T04:43:49.405Z,4.63
2017-12-17T04:44:49.430Z,4.67
2017-12-17T04:46:10.402Z,4.63
2017-12-17T04:46:49.433Z,4.70
2017-12-17T04:47:49.396Z,4.55
2017-12-17T04:48:49.438Z,4.50
2017-12-17T04:49:49.442Z,4.67
2017-12-17T04:50:49.459Z,4.74
2017-12-17T04:52:10.486Z,4.73
2017-12-17T04:52:49.487Z,4.63
2017-12-17T04:53:49.498Z,4.86
2017-12-17T04:54:49.526Z,4.89
2017-12-17T04:55:49.517Z,4.63
2017-12-17T04:56:49.533Z,4.80
2017-12-17T04:58:10.552Z,4.96
2017-12-17T04:58:49.587Z,5.00
2017-12-17T04:59:49.580Z,4.87
2017-12-17T05:00:49.585Z,4.75
2017-12-17T05:01:49.613Z,4.90
2017-12-17T05:02:49.610Z,5.00
2017-12-17T05:04:10.638Z,5.07
2017-12-17T05:04:49.640Z,5.00
2017-12-17T05:05:49.655Z,4.94
2017-12-17T05:06:49.673Z,4.86
2017-12-17T05:07:49.675Z,4.99
2017-12-17T05:08:49.669Z,4.90
2017-12-17T05:10:10.729Z,4.86
2017-12-17T05:10:49.724Z,4.90
2017-12-17T05:11:49.692Z,4.78
2017-12-17T05:12:49.758Z,4.70
2017-12-17T05:13:49.764Z,4.92
2017-12-17T05:14:49.772Z,4.82
2017-12-17T05:16:10.791Z,4.84
2017-12-17T05:16:49.813Z,4.70
2017-12-17T05:17:49.810Z,4.68
2017-12-17T05:18:49.823Z,4.62
2017-12-17T05:19:49.831Z,4.58
2017-12-17T05:20:49.854Z,4.50
2017-12-17T05:22:10.871Z,4.44
2017-12-17T05:22:49.837Z,4.44
2017-12-17T05:23:49.887Z,4.78
2017-12-17T05:24:49.912Z,4.70
2017-12-17T05:25:49.906Z,4.63
2017-12-17T05:26:49.930Z,4.78
2017-12-17T05:28:11.035Z,4.87
2017-12-17T05:28:49.951Z,4.90
2017-12-17T05:29:49.959Z,4.89
2017-12-17T05:30:49.983Z,4.67
2017-12-17T05:31:49.977Z,4.53
2017-12-17T05:32:50.004Z,4.73
2017-12-17T05:34:11.034Z,4.87
2017-12-17T05:34:50.035Z,4.90
2017-12-17T05:35:50.045Z,4.84
2017-12-17T05:36:50.063Z,4.82
2017-12-17T05:37:50.092Z,4.68
2017-12-17T05:38:50.082Z,4.53
2017-12-17T05:40:11.110Z,4.70
2017-12-17T05:40:50.140Z,4.84
2017-12-17T05:41:50.104Z,4.82
2017-12-17T05:42:50.137Z,4.89
2017-12-17T05:43:50.153Z,4.74
2017-12-17T05:44:50.167Z,4.78
2017-12-17T05:46:11.192Z,4.96
2017-12-17T05:46:50.212Z,4.55
2017-12-17T05:47:50.204Z,4.63
2017-12-17T05:48:50.205Z,4.66
2017-12-17T05:49:50.225Z,4.52
2017-12-17T05:50:50.239Z,4.53
2017-12-17T05:52:11.275Z,4.75
2017-12-17T05:52:50.284Z,4.75
2017-12-17T05:53:50.282Z,4.80
2017-12-17T05:54:50.305Z,4.73
2017-12-17T05:55:50.331Z,4.68
2017-12-17T05:56:50.307Z,4.78
2017-12-17T05:58:11.345Z,4.58
2017-12-17T05:58:50.348Z,4.50
2017-12-17T05:59:50.360Z,4.58
2017-12-17T06:00:50.369Z,4.44
2017-12-17T06:01:50.392Z,4.34
2017-12-17T06:02:50.402Z,4.48
2017-12-17T06:04:11.398Z,4.59
2017-12-17T06:04:50.420Z,4.58
2017-12-17T06:05:50.446Z,4.59
2017-12-17T06:06:50.460Z,4.50
2017-12-17T06:07:50.489Z,4.40
2017-12-17T06:08:50.481Z,4.67
2017-12-17T06:10:11.511Z,4.71
2017-12-17T06:10:50.537Z,4.55
2017-12-17T06:11:50.514Z,4.62
2017-12-17T06:12:50.525Z,4.68
2017-12-17T06:13:50.535Z,4.73
2017-12-17T06:14:50.533Z,4.67
2017-12-17T06:16:11.596Z,4.67
2017-12-17T06:16:50.580Z,4.80
2017-12-17T06:17:50.600Z,4.80
2017-12-17T06:18:50.603Z,4.86
2017-12-17T06:19:50.606Z,4.68
2017-12-17T06:20:50.647Z,4.58
2017-12-17T06:22:11.663Z,4.59
2017-12-17T06:22:50.662Z,4.55
2017-12-17T06:23:50.676Z,4.52
2017-12-17T06:24:50.680Z,4.56
2017-12-17T06:25:50.665Z,4.71
2017-12-17T06:26:50.689Z,4.78
2017-12-17T06:28:11.718Z,4.89
2017-12-17T06:28:50.728Z,4.86
2017-12-17T06:29:50.803Z,5.02
2017-12-17T06:30:50.758Z,4.80
2017-12-17T06:31:50.744Z,4.62
2017-12-17T06:32:50.801Z,4.56
2017-12-17T06:34:11.829Z,4.42
2017-12-17T06:34:50.817Z,4.59
2017-12-17T06:35:50.839Z,4.41
2017-12-17T06:36:50.850Z,4.58
2017-12-17T06:37:50.853Z,4.41
2017-12-17T06:38:50.826Z,4.35
2017-12-17T06:40:11.898Z,4.42
2017-12-17T06:40:50.873Z,4.41
2017-12-17T06:41:50.970Z,4.41
2017-12-17T06:42:50.888Z,4.55
2017-12-17T06:43:50.857Z,4.45
2017-12-17T06:44:50.947Z,4.56
2017-12-17T06:46:11.964Z,4.42
2017-12-17T06:46:50.937Z,4.42
2017-12-17T06:47:51.012Z,4.60
2017-12-17T06:48:50.994Z,4.58
2017-12-17T06:49:51.019Z,4.42
2017-12-17T06:50:51.025Z,4.38
2017-12-17T06:52:12.024Z,4.53
2017-12-17T06:52:51.054Z,4.55
2017-12-17T06:53:51.064Z,4.53
2017-12-17T06:54:51.083Z,4.59
2017-12-17T06:55:51.089Z,4.70
2017-12-17T06:56:51.092Z,4.68
2017-12-17T06:58:12.136Z,4.82
2017-12-17T06:58:51.143Z,4.92
2017-12-17T06:59:51.139Z,4.92
2017-12-17T07:00:51.129Z,4.73
2017-12-17T07:01:51.215Z,4.67
2017-12-17T07:02:51.171Z,4.55
2017-12-17T07:04:12.214Z,4.56
2017-12-17T07:04:51.209Z,4.52
2017-12-17T07:05:51.272Z,4.37
2017-12-17T07:06:51.399Z,4.42
2017-12-17T07:07:51.260Z,4.67
2017-12-17T07:08:51.260Z,4.63
2017-12-17T07:10:12.281Z,4.62
2017-12-17T07:10:51.316Z,4.78
2017-12-17T07:11:51.324Z,4.78
2017-12-17T07:12:51.307Z,4.86
2017-12-17T07:13:51.336Z,4.87
2017-12-17T07:14:51.337Z,4.99
2017-12-17T07:16:12.363Z,5.00
2017-12-17T07:16:51.359Z,5.02
2017-12-17T07:17:51.393Z,4.87
2017-12-17T07:18:51.402Z,4.86
2017-12-17T07:19:51.397Z,4.68
2017-12-17T07:20:51.410Z,4.89
2017-12-17T07:22:12.440Z,4.87
2017-12-17T07:22:51.438Z,5.04
2017-12-17T07:23:51.457Z,4.87
2017-12-17T07:24:51.482Z,4.96
2017-12-17T07:25:51.481Z,5.04
2017-12-17T07:26:51.432Z,5.04
2017-12-17T07:28:12.538Z,4.74
2017-12-17T07:28:51.551Z,4.73
2017-12-17T07:29:51.544Z,4.82
2017-12-17T07:30:51.572Z,5.20
2017-12-17T07:31:51.595Z,5.17
2017-12-17T07:32:51.571Z,4.78
2017-12-17T07:34:12.579Z,4.53
2017-12-17T07:34:51.609Z,4.74
2017-12-17T07:35:51.615Z,4.80
2017-12-17T07:36:51.620Z,4.77
2017-12-17T07:37:51.643Z,4.84
2017-12-17T07:38:51.668Z,4.84
2017-12-17T07:40:12.701Z,4.87
2017-12-17T07:40:51.756Z,4.96
2017-12-17T07:41:51.695Z,4.74
2017-12-17T07:42:51.707Z,4.58
2017-12-17T07:43:51.803Z,4.71
2017-12-17T07:44:51.740Z,4.78
2017-12-17T07:46:12.781Z,5.04
2017-12-17T07:46:51.747Z,5.14
2017-12-17T07:47:51.868Z,5.04
2017-12-17T07:48:51.811Z,5.07
2017-12-17T07:49:51.789Z,4.80
2017-12-17T07:50:53.249Z,4.68
2017-12-17T07:52:13.635Z,4.56
2017-12-17T07:52:53.721Z,4.80
2017-12-17T07:53:53.368Z,4.86
2017-12-17T07:54:53.328Z,4.87
2017-12-17T07:55:53.503Z,4.89
2017-12-17T07:56:53.515Z,4.82
2017-12-17T07:58:14.514Z,4.84
2017-12-17T07:58:53.209Z,4.71
2017-12-17T07:59:53.288Z,4.71
2017-12-17T08:00:54.217Z,4.70
2017-12-17T08:01:51.999Z,4.63
2017-12-17T08:02:51.990Z,4.42
2017-12-17T08:04:14.426Z,4.80
2017-12-17T08:04:52.196Z,4.84
2017-12-17T08:05:52.014Z,4.74
2017-12-17T08:06:52.028Z,4.78
2017-12-17T08:07:52.025Z,4.90
2017-12-17T08:08:52.058Z,4.67
2017-12-17T08:10:15.224Z,4.75
2017-12-17T08:10:52.114Z,4.74
2017-12-17T08:11:52.068Z,4.93
2017-12-17T08:12:52.080Z,4.86
2017-12-17T08:13:52.081Z,4.73
2017-12-17T08:14:52.143Z,4.93
2017-12-17T08:16:13.722Z,4.77
2017-12-17T08:16:52.723Z,4.82
2017-12-17T08:17:53.722Z,4.84
2017-12-17T08:18:54.061Z,4.56
2017-12-17T08:19:52.200Z,4.58
2017-12-17T08:20:52.213Z,4.56
2017-12-17T08:22:14.175Z,4.82
2017-12-17T08:22:54.433Z,4.94
2017-12-17T08:23:52.683Z,4.89
2017-12-17T08:24:54.487Z,4.90
2017-12-17T08:25:54.353Z,4.74
2017-12-17T08:26:54.480Z,4.75
2017-12-17T08:28:13.328Z,4.84
2017-12-17T08:28:54.359Z,5.11
2017-12-17T08:29:54.406Z,5.26
2017-12-17T08:30:54.403Z,5.12
2017-12-17T08:31:54.741Z,4.82
2017-12-17T08:32:54.868Z,4.82
2017-12-17T08:34:15.876Z,4.87
2017-12-17T08:34:52.405Z,4.77
2017-12-17T08:35:52.418Z,4.92
2017-12-17T08:36:52.410Z,4.90
2017-12-17T08:37:52.456Z,4.77
2017-12-17T08:38:52.421Z,4.89
2017-12-17T08:40:15.953Z,4.99
2017-12-17T08:40:52.486Z,4.93
2017-12-17T08:41:52.517Z,5.10
2017-12-17T08:42:52.510Z,5.14
2017-12-17T08:43:52.534Z,5.20
2017-12-17T08:44:52.567Z,5.29
2017-12-17T08:46:15.819Z,5.21
2017-12-17T08:46:52.561Z,5.32
2017-12-17T08:47:52.585Z,5.23
2017-12-17T08:48:52.653Z,5.30
2017-12-17T08:49:52.607Z,5.25
2017-12-17T08:50:52.628Z,5.47
2017-12-17T08:52:15.943Z,5.44
2017-12-17T08:52:52.662Z,5.35
2017-12-17T08:53:52.621Z,5.32
2017-12-17T08:54:52.633Z,5.28
2017-12-17T08:55:52.683Z,5.23
2017-12-17T08:56:52.688Z,5.25
2017-12-17T08:58:16.072Z,5.20
2017-12-17T08:58:52.725Z,5.43
2017-12-17T08:59:52.726Z,5.15
2017-12-17T09:00:52.765Z,4.97
2017-12-17T09:01:52.729Z,5.17
2017-12-17T09:02:52.780Z,5.23
2017-12-17T09:04:14.255Z,4.92
2017-12-17T09:04:52.832Z,5.07
2017-12-17T09:05:55.322Z,5.14
2017-12-17T09:06:52.862Z,5.29
2017-12-17T09:07:54.366Z,5.36
2017-12-17T09:08:54.276Z,5.35
2017-12-17T09:10:15.583Z,5.35
2017-12-17T09:10:52.908Z,5.47
2017-12-17T09:11:52.877Z,5.54
2017-12-17T09:12:55.901Z,5.75
2017-12-17T09:13:52.939Z,5.66
2017-12-17T09:14:52.925Z,5.46
2017-12-17T09:16:13.966Z,5.36
2017-12-17T09:16:53.082Z,5.46
2017-12-17T09:17:52.977Z,5.43
2017-12-17T09:18:52.984Z,5.38
2017-12-17T09:19:53.016Z,5.44
2017-12-17T09:20:53.023Z,5.48
2017-12-17T09:22:14.038Z,5.50
2017-12-17T09:22:53.035Z,5.48
2017-12-17T09:23:53.089Z,5.66
2017-12-17T09:24:53.067Z,5.80
2017-12-17T09:25:53.103Z,5.75
2017-12-17T09:26:53.117Z,5.33
2017-12-17T09:28:15.179Z,5.25
2017-12-17T09:28:53.229Z,5.32
2017-12-17T09:29:53.145Z,5.36
2017-12-17T09:30:53.194Z,5.48
2017-12-17T09:31:53.182Z,5.71
2017-12-17T09:32:53.190Z,5.68
2017-12-17T09:34:14.194Z,5.61
2017-12-17T09:34:53.203Z,5.59
2017-12-17T09:35:53.255Z,5.33
2017-12-17T09:36:53.194Z,5.36
2017-12-17T09:37:53.246Z,5.35
2017-12-17T09:38:53.287Z,5.39
2017-12-17T09:40:14.270Z,5.41
2017-12-17T09:40:53.347Z,5.46
2017-12-17T09:41:53.289Z,5.28
2017-12-17T09:42:53.299Z,5.17
2017-12-17T09:43:53.348Z,5.36
2017-12-17T09:44:53.354Z,5.25
2017-12-17T09:46:14.375Z,5.29
2017-12-17T09:46:53.377Z,5.18
2017-12-17T09:47:53.400Z,5.44
2017-12-17T09:48:53.384Z,5.48
2017-12-17T09:49:53.422Z,5.29
2017-12-17T09:50:53.436Z,5.50
2017-12-17T09:52:14.451Z,5.38
2017-12-17T09:52:53.473Z,5.54
2017-12-17T09:53:53.534Z,5.54
2017-12-17T09:54:53.456Z,5.68
2017-12-17T09:55:53.474Z,5.61
2017-12-17T09:56:53.506Z,5.46
2017-12-17T09:58:17.037Z,5.44
2017-12-17T09:58:53.535Z,5.56
2017-12-17T09:59:53.657Z,5.23
2017-12-17T10:00:56.240Z,5.30
2017-12-17T10:01:56.240Z,5.32
2017-12-17T10:02:55.240Z,5.21
2017-12-17T10:04:15.239Z,5.25
2017-12-17T10:04:53.630Z,5.26
2017-12-17T10:05:53.682Z,5.35
2017-12-17T10:06:53.737Z,5.50
2017-12-17T10:07:53.725Z,5.46
2017-12-17T10:08:53.670Z,5.66
2017-12-17T10:10:14.678Z,5.54
2017-12-17T10:10:53.874Z,5.72
2017-12-17T10:11:53.751Z,5.32
2017-12-17T10:12:53.742Z,5.23
2017-12-17T10:13:53.732Z,5.14
2017-12-17T10:14:53.736Z,5.18
2017-12-17T10:16:14.882Z,5.39
2017-12-17T10:16:57.238Z,5.12
2017-12-17T10:17:57.238Z,5.18
2017-12-17T10:18:54.744Z,5.23
2017-12-17T10:19:55.534Z,5.35
2017-12-17T10:20:55.558Z,5.43
2017-12-17T10:22:14.900Z,5.33
2017-12-17T10:22:54.738Z,5.47
2017-12-17T10:23:54.738Z,5.23
2017-12-17T10:24:54.737Z,5.44
2017-12-17T10:25:54.736Z,5.48
2017-12-17T10:26:55.736Z,5.43
2017-12-17T10:28:14.926Z,5.29
2017-12-17T10:28:57.350Z,5.48
2017-12-17T10:29:56.441Z,5.43
2017-12-17T10:30:56.404Z,5.39
2017-12-17T10:31:56.275Z,5.44
2017-12-17T10:32:56.278Z,5.62
2017-12-17T10:34:15.046Z,5.71
2017-12-17T10:34:54.821Z,5.65
2017-12-17T10:35:54.739Z,5.56
2017-12-17T10:36:54.058Z,5.48
2017-12-17T10:37:54.064Z,5.54
2017-12-17T10:38:54.075Z,5.69
2017-12-17T10:40:15.074Z,5.73
2017-12-17T10:40:54.113Z,5.61
2017-12-17T10:41:54.124Z,5.56
2017-12-17T10:42:54.143Z,5.72
2017-12-17T10:43:54.164Z,5.76
2017-12-17T10:44:54.167Z,5.38
2017-12-17T10:46:16.079Z,5.44
2017-12-17T10:46:54.165Z,5.66
2017-12-17T10:47:54.217Z,5.69
2017-12-17T10:48:54.242Z,5.68
2017-12-17T10:49:54.293Z,5.76
2017-12-17T10:50:54.246Z,5.80
2017-12-17T10:52:15.293Z,5.93
2017-12-17T10:52:54.277Z,6.04
2017-12-17T10:53:54.302Z,5.76
2017-12-17T10:54:54.306Z,6.02
2017-12-17T10:55:54.311Z,6.19
2017-12-17T10:56:54.336Z,6.36
2017-12-17T10:58:17.156Z,6.30
2017-12-17T10:58:54.334Z,6.41
2017-12-17T10:59:54.369Z,6.31
2017-12-17T11:00:54.341Z,6.46
2017-12-17T11:01:54.397Z,6.45
2017-12-17T11:02:54.411Z,6.48
2017-12-17T11:04:17.274Z,6.59
2017-12-17T11:04:54.437Z,6.66
2017-12-17T11:05:54.414Z,6.63
2017-12-17T11:06:54.454Z,6.52
2017-12-17T11:07:54.449Z,6.49
2017-12-17T11:08:54.466Z,6.52
2017-12-17T11:10:17.859Z,6.08
2017-12-17T11:10:54.510Z,6.35
2017-12-17T11:11:54.549Z,6.51
2017-12-17T11:12:54.565Z,6.48
2017-12-17T11:13:54.548Z,6.42
2017-12-17T11:14:54.619Z,6.49
2017-12-17T11:16:16.273Z,6.28
2017-12-17T11:16:54.608Z,6.28
2017-12-17T11:17:54.616Z,6.12
2017-12-17T11:18:54.634Z,5.97
2017-12-17T11:19:54.655Z,6.01
2017-12-17T11:20:54.667Z,5.89
2017-12-17T11:22:15.668Z,6.11
2017-12-17T11:22:54.691Z,5.90
2017-12-17T11:23:54.720Z,6.02
2017-12-17T11:24:55.612Z,5.98
2017-12-17T11:25:55.661Z,5.90
2017-12-17T11:26:55.683Z,5.98
2017-12-17T11:28:18.231Z,5.90
2017-12-17T11:28:55.718Z,6.04
2017-12-17T11:29:55.730Z,6.14
2017-12-17T11:30:55.729Z,6.24
2017-12-17T11:31:55.770Z,5.87
2017-12-17T11:32:55.771Z,5.91
2017-12-17T11:34:16.772Z,6.08
2017-12-17T11:34:55.770Z,6.09
2017-12-17T11:35:56.657Z,6.01
2017-12-17T11:36:56.271Z,5.97
2017-12-17T11:37:54.943Z,6.02
2017-12-17T11:38:56.765Z,5.84
2017-12-17T11:40:17.344Z,5.75
2017-12-17T11:40:54.936Z,5.91
2017-12-17T11:41:56.860Z,5.54
2017-12-17T11:42:56.854Z,5.72
2017-12-17T11:43:56.812Z,5.87
2017-12-17T11:44:56.856Z,6.02
2017-12-17T11:46:17.884Z,5.97
2017-12-17T11:46:56.854Z,6.14
2017-12-17T11:47:55.034Z,6.12
2017-12-17T11:48:57.184Z,6.17
2017-12-17T11:49:57.225Z,6.33
2017-12-17T11:50:57.107Z,6.24
2017-12-17T11:52:18.092Z,6.07
2017-12-17T11:52:57.899Z,6.08
2017-12-17T11:53:57.770Z,6.36
2017-12-17T11:54:57.811Z,6.24
2017-12-17T11:55:57.747Z,6.09
2017-12-17T11:56:55.747Z,6.31
2017-12-17T11:58:16.167Z,6.28
2017-12-17T11:58:55.196Z,5.98
2017-12-17T11:59:55.220Z,5.84
2017-12-17T12:00:55.221Z,6.14
2017-12-17T12:01:55.239Z,6.01
2017-12-17T12:02:55.262Z,6.08
2017-12-17T12:04:16.255Z,5.87
2017-12-17T12:04:55.293Z,6.04
2017-12-17T12:05:55.284Z,6.31
2017-12-17T12:06:55.306Z,6.44
2017-12-17T12:07:55.330Z,6.44
2017-12-17T12:08:55.360Z,6.56
2017-12-17T12:10:16.360Z,6.67
2017-12-17T12:10:55.330Z,6.64
2017-12-17T12:11:55.422Z,6.70
2017-12-17T12:12:55.415Z,6.59
2017-12-17T12:13:55.389Z,6.51
2017-12-17T12:14:55.437Z,6.60
2017-12-17T12:16:16.451Z,6.78
2017-12-17T12:16:55.425Z,6.70
2017-12-17T12:17:55.464Z,6.74
2017-12-17T12:18:55.470Z,6.67
2017-12-17T12:19:55.489Z,6.48
2017-12-17T12:20:55.515Z,6.62
2017-12-17T12:22:16.536Z,6.19
2017-12-17T12:22:55.533Z,6.24
2017-12-17T12:23:55.530Z,6.60
2017-12-17T12:24:55.576Z,6.75
2017-12-17T12:25:55.599Z,6.85
2017-12-17T12:26:55.592Z,6.89
2017-12-17T12:28:16.629Z,6.99
2017-12-17T12:28:55.608Z,7.00
2017-12-17T12:29:55.637Z,6.85
2017-12-17T12:30:55.661Z,6.70
2017-12-17T12:31:55.687Z,6.70
2017-12-17T12:32:55.675Z,6.89
2017-12-17T12:34:16.711Z,6.69
2017-12-17T12:34:55.727Z,6.81
2017-12-17T12:35:55.744Z,6.95
2017-12-17T12:36:55.740Z,6.79
2017-12-17T12:37:55.743Z,6.62
2017-12-17T12:38:55.795Z,6.59
2017-12-17T12:40:16.786Z,6.49
2017-12-17T12:40:55.805Z,6.54
2017-12-17T12:41:55.815Z,6.56
2017-12-17T12:42:55.824Z,6.63
2017-12-17T12:43:55.801Z,6.60
2017-12-17T12:44:55.860Z,6.62
2017-12-17T12:46:16.874Z,6.46
2017-12-17T12:46:55.887Z,6.66
2017-12-17T12:47:55.916Z,6.59
2017-12-17T12:48:55.933Z,6.44
2017-12-17T12:49:55.931Z,6.41
2017-12-17T12:50:55.938Z,6.11
2017-12-17T12:52:18.409Z,6.20
2017-12-17T12:52:55.970Z,6.16
2017-12-17T12:53:55.992Z,6.30
2017-12-17T12:54:56.010Z,6.42
2017-12-17T12:55:56.043Z,6.52
2017-12-17T12:56:55.989Z,6.57
2017-12-17T12:58:21.327Z,6.51
2017-12-17T12:58:56.063Z,6.30
2017-12-17T12:59:56.073Z,6.41
2017-12-17T13:00:56.092Z,6.17
2017-12-17T13:01:56.085Z,6.38
2017-12-17T13:02:56.121Z,6.52
2017-12-17T13:04:18.444Z,6.12
2017-12-17T13:04:56.124Z,6.11
2017-12-17T13:05:56.153Z,6.11
2017-12-17T13:06:56.199Z,5.99
2017-12-17T13:07:56.192Z,5.69
2017-12-17T13:08:56.210Z,5.91
2017-12-17T13:10:18.410Z,5.83
2017-12-17T13:10:56.215Z,5.86
2017-12-17T13:11:56.232Z,6.01
2017-12-17T13:12:56.230Z,5.83
2017-12-17T13:13:56.259Z,5.86
2017-12-17T13:14:56.301Z,5.71
2017-12-17T13:16:19.403Z,5.59
2017-12-17T13:16:56.303Z,5.69
2017-12-17T13:17:56.334Z,5.69
2017-12-17T13:18:56.356Z,5.76